sensor_id;sensor_type;location;lat;lon;timestamp;P1;durP1;ratioP1;P2;durP2;ratioP2
5279;SDS011;2663;53.588;10.010;2023-04-09T00:02:02;90.17;;;39.93;;
5279;SDS011;2663;53.588;10.010;2023-04-09T00:04:28;87.40;;;39.73;;
5279;SDS011;2663;53.588;10.010;2023-04-09T00:06:55;99.33;;;41.40;;
5279;SDS011;2663;53.588;10.010;2023-04-09T00:09:22;92.77;;;40.60;;
5279;SDS011;2663;53.588;10.010;2023-04-09T00:11:48;99.40;;;43.33;;
5279;SDS011;2663;53.588;10.010;2023-04-09T00:14:15;91.47;;;40.90;;
5279;SDS011;2663;53.588;10.010;2023-04-09T00:16:42;95.37;;;41.23;;
5279;SDS011;2663;53.588;10.010;2023-04-09T00:19:08;96.10;;;41.53;;
5279;SDS011;2663;53.588;10.010;2023-04-09T00:21:36;113.47;;;41.70;;
5279;SDS011;2663;53.588;10.010;2023-04-09T00:24:03;107.00;;;40.30;;
5279;SDS011;2663;53.588;10.010;2023-04-09T00:26:30;98.73;;;39.67;;
5279;SDS011;2663;53.588;10.010;2023-04-09T00:28:57;97.77;;;42.10;;
5279;SDS011;2663;53.588;10.010;2023-04-09T00:31:23;100.10;;;40.60;;
5279;SDS011;2663;53.588;10.010;2023-04-09T00:33:50;106.43;;;43.07;;
5279;SDS011;2663;53.588;10.010;2023-04-09T00:36:17;114.90;;;42.20;;
5279;SDS011;2663;53.588;10.010;2023-04-09T00:38:43;102.97;;;42.30;;
5279;SDS011;2663;53.588;10.010;2023-04-09T00:41:11;101.83;;;42.57;;
5279;SDS011;2663;53.588;10.010;2023-04-09T00:43:38;98.80;;;43.57;;
5279;SDS011;2663;53.588;10.010;2023-04-09T00:46:04;124.97;;;45.43;;
5279;SDS011;2663;53.588;10.010;2023-04-09T00:48:31;106.20;;;43.60;;
5279;SDS011;2663;53.588;10.010;2023-04-09T00:50:58;102.30;;;40.67;;
5279;SDS011;2663;53.588;10.010;2023-04-09T00:53:25;88.00;;;40.80;;
5279;SDS011;2663;53.588;10.010;2023-04-09T00:55:52;88.77;;;36.43;;
5279;SDS011;2663;53.588;10.010;2023-04-09T00:58:20;92.67;;;39.57;;
5279;SDS011;2663;53.588;10.010;2023-04-09T01:00:46;103.70;;;41.13;;
5279;SDS011;2663;53.588;10.010;2023-04-09T01:03:13;100.67;;;41.03;;
5279;SDS011;2663;53.588;10.010;2023-04-09T01:05:52;99.27;;;40.40;;
5279;SDS011;2663;53.588;10.010;2023-04-09T01:11:37;102.87;;;42.63;;
5279;SDS011;2663;53.588;10.010;2023-04-09T01:16:45;100.33;;;37.70;;
5279;SDS011;2663;53.588;10.010;2023-04-09T01:21:44;88.73;;;37.70;;
5279;SDS011;2663;53.588;10.010;2023-04-09T01:26:53;88.10;;;37.93;;
5279;SDS011;2663;53.588;10.010;2023-04-09T01:29:34;97.73;;;38.23;;
5279;SDS011;2663;53.588;10.010;2023-04-09T01:32:06;103.37;;;38.77;;
5279;SDS011;2663;53.588;10.010;2023-04-09T01:34:34;89.90;;;38.73;;
5279;SDS011;2663;53.588;10.010;2023-04-09T01:37:02;86.33;;;35.90;;
5279;SDS011;2663;53.588;10.010;2023-04-09T01:39:29;89.60;;;37.83;;
5279;SDS011;2663;53.588;10.010;2023-04-09T01:41:56;102.97;;;39.40;;
5279;SDS011;2663;53.588;10.010;2023-04-09T01:44:23;84.73;;;34.70;;
5279;SDS011;2663;53.588;10.010;2023-04-09T01:46:51;84.13;;;35.40;;
5279;SDS011;2663;53.588;10.010;2023-04-09T01:49:19;89.47;;;38.70;;
5279;SDS011;2663;53.588;10.010;2023-04-09T01:51:47;90.03;;;36.63;;
5279;SDS011;2663;53.588;10.010;2023-04-09T01:54:14;105.33;;;39.17;;
5279;SDS011;2663;53.588;10.010;2023-04-09T01:56:42;85.20;;;34.33;;
5279;SDS011;2663;53.588;10.010;2023-04-09T01:59:09;88.17;;;36.40;;
5279;SDS011;2663;53.588;10.010;2023-04-09T02:01:38;89.07;;;34.20;;
5279;SDS011;2663;53.588;10.010;2023-04-09T02:04:17;88.97;;;37.60;;
5279;SDS011;2663;53.588;10.010;2023-04-09T02:09:24;85.77;;;34.00;;
5279;SDS011;2663;53.588;10.010;2023-04-09T02:11:55;89.73;;;35.37;;
5279;SDS011;2663;53.588;10.010;2023-04-09T02:14:23;111.07;;;36.37;;
5279;SDS011;2663;53.588;10.010;2023-04-09T02:16:52;78.47;;;34.97;;
5279;SDS011;2663;53.588;10.010;2023-04-09T02:19:19;90.37;;;35.27;;
5279;SDS011;2663;53.588;10.010;2023-04-09T02:21:45;89.83;;;34.03;;
5279;SDS011;2663;53.588;10.010;2023-04-09T02:24:12;91.47;;;34.63;;
5279;SDS011;2663;53.588;10.010;2023-04-09T02:26:39;79.77;;;33.80;;
5279;SDS011;2663;53.588;10.010;2023-04-09T02:32:00;81.53;;;35.57;;
5279;SDS011;2663;53.588;10.010;2023-04-09T02:34:26;82.07;;;34.27;;
5279;SDS011;2663;53.588;10.010;2023-04-09T02:36:53;85.70;;;35.67;;
5279;SDS011;2663;53.588;10.010;2023-04-09T02:39:20;85.30;;;34.53;;
5279;SDS011;2663;53.588;10.010;2023-04-09T02:41:46;96.10;;;35.20;;
5279;SDS011;2663;53.588;10.010;2023-04-09T02:44:13;92.67;;;34.87;;
5279;SDS011;2663;53.588;10.010;2023-04-09T02:46:40;87.03;;;33.07;;
5279;SDS011;2663;53.588;10.010;2023-04-09T02:49:07;87.20;;;36.10;;
5279;SDS011;2663;53.588;10.010;2023-04-09T02:51:34;78.97;;;33.77;;
5279;SDS011;2663;53.588;10.010;2023-04-09T02:54:01;94.90;;;34.40;;
5279;SDS011;2663;53.588;10.010;2023-04-09T02:56:28;91.57;;;36.03;;
5279;SDS011;2663;53.588;10.010;2023-04-09T02:58:55;88.63;;;37.20;;
5279;SDS011;2663;53.588;10.010;2023-04-09T03:01:22;90.53;;;35.37;;
5279;SDS011;2663;53.588;10.010;2023-04-09T03:03:49;100.10;;;37.40;;
5279;SDS011;2663;53.588;10.010;2023-04-09T03:06:15;91.93;;;35.47;;
5279;SDS011;2663;53.588;10.010;2023-04-09T03:08:43;86.73;;;34.67;;
5279;SDS011;2663;53.588;10.010;2023-04-09T03:11:10;72.70;;;34.57;;
5279;SDS011;2663;53.588;10.010;2023-04-09T03:13:37;96.43;;;34.57;;
5279;SDS011;2663;53.588;10.010;2023-04-09T03:16:04;113.73;;;38.80;;
5279;SDS011;2663;53.588;10.010;2023-04-09T03:18:31;126.80;;;40.90;;
5279;SDS011;2663;53.588;10.010;2023-04-09T03:20:57;134.77;;;39.23;;
5279;SDS011;2663;53.588;10.010;2023-04-09T03:23:24;116.80;;;41.77;;
5279;SDS011;2663;53.588;10.010;2023-04-09T03:26:00;124.90;;;41.40;;
5279;SDS011;2663;53.588;10.010;2023-04-09T03:28:28;123.43;;;43.27;;
5279;SDS011;2663;53.588;10.010;2023-04-09T03:30:55;128.43;;;41.73;;
5279;SDS011;2663;53.588;10.010;2023-04-09T03:33:22;129.30;;;40.70;;
5279;SDS011;2663;53.588;10.010;2023-04-09T03:35:49;118.60;;;41.50;;
5279;SDS011;2663;53.588;10.010;2023-04-09T03:38:16;106.07;;;38.43;;
5279;SDS011;2663;53.588;10.010;2023-04-09T03:40:43;113.33;;;37.27;;
5279;SDS011;2663;53.588;10.010;2023-04-09T03:43:09;109.57;;;38.47;;
5279;SDS011;2663;53.588;10.010;2023-04-09T03:45:36;128.90;;;40.20;;
5279;SDS011;2663;53.588;10.010;2023-04-09T03:48:03;124.77;;;41.90;;
5279;SDS011;2663;53.588;10.010;2023-04-09T03:50:29;103.33;;;38.90;;
5279;SDS011;2663;53.588;10.010;2023-04-09T03:52:56;112.10;;;38.67;;
5279;SDS011;2663;53.588;10.010;2023-04-09T03:55:23;112.23;;;37.30;;
5279;SDS011;2663;53.588;10.010;2023-04-09T03:57:50;124.20;;;39.23;;
5279;SDS011;2663;53.588;10.010;2023-04-09T04:00:16;107.90;;;39.30;;
5279;SDS011;2663;53.588;10.010;2023-04-09T04:02:43;116.77;;;38.27;;
5279;SDS011;2663;53.588;10.010;2023-04-09T04:05:10;96.33;;;35.00;;
5279;SDS011;2663;53.588;10.010;2023-04-09T04:07:37;94.23;;;35.10;;
5279;SDS011;2663;53.588;10.010;2023-04-09T04:10:04;101.20;;;36.43;;
5279;SDS011;2663;53.588;10.010;2023-04-09T04:12:31;104.93;;;37.47;;
5279;SDS011;2663;53.588;10.010;2023-04-09T04:14:58;100.90;;;37.60;;
5279;SDS011;2663;53.588;10.010;2023-04-09T04:17:26;84.60;;;33.37;;
5279;SDS011;2663;53.588;10.010;2023-04-09T04:19:53;113.33;;;35.77;;
5279;SDS011;2663;53.588;10.010;2023-04-09T04:22:20;92.77;;;34.73;;
5279;SDS011;2663;53.588;10.010;2023-04-09T04:24:49;102.93;;;36.83;;
5279;SDS011;2663;53.588;10.010;2023-04-09T04:27:15;97.47;;;35.53;;
5279;SDS011;2663;53.588;10.010;2023-04-09T04:29:42;98.93;;;36.33;;
5279;SDS011;2663;53.588;10.010;2023-04-09T04:32:09;89.53;;;35.30;;
5279;SDS011;2663;53.588;10.010;2023-04-09T04:34:35;92.97;;;33.87;;
5279;SDS011;2663;53.588;10.010;2023-04-09T04:37:02;103.30;;;37.27;;
5279;SDS011;2663;53.588;10.010;2023-04-09T04:39:29;98.20;;;36.57;;
5279;SDS011;2663;53.588;10.010;2023-04-09T04:41:56;96.57;;;36.17;;
5279;SDS011;2663;53.588;10.010;2023-04-09T04:44:23;99.77;;;36.30;;
5279;SDS011;2663;53.588;10.010;2023-04-09T04:46:49;90.07;;;34.37;;
5279;SDS011;2663;53.588;10.010;2023-04-09T04:49:16;96.57;;;35.77;;
5279;SDS011;2663;53.588;10.010;2023-04-09T04:51:42;86.53;;;35.47;;
5279;SDS011;2663;53.588;10.010;2023-04-09T04:54:09;78.93;;;32.57;;
5279;SDS011;2663;53.588;10.010;2023-04-09T04:56:36;96.27;;;35.13;;
5279;SDS011;2663;53.588;10.010;2023-04-09T04:59:02;94.67;;;36.80;;
5279;SDS011;2663;53.588;10.010;2023-04-09T05:01:29;91.87;;;35.90;;
5279;SDS011;2663;53.588;10.010;2023-04-09T05:03:56;85.37;;;34.93;;
5279;SDS011;2663;53.588;10.010;2023-04-09T05:06:22;91.93;;;33.53;;
5279;SDS011;2663;53.588;10.010;2023-04-09T05:08:49;92.57;;;36.47;;
5279;SDS011;2663;53.588;10.010;2023-04-09T05:11:16;79.00;;;35.23;;
5279;SDS011;2663;53.588;10.010;2023-04-09T05:13:43;92.07;;;35.70;;
5279;SDS011;2663;53.588;10.010;2023-04-09T05:16:19;79.80;;;32.63;;
5279;SDS011;2663;53.588;10.010;2023-04-09T05:18:47;98.63;;;35.53;;
5279;SDS011;2663;53.588;10.010;2023-04-09T05:21:13;90.70;;;35.20;;
5279;SDS011;2663;53.588;10.010;2023-04-09T05:23:40;107.00;;;36.40;;
5279;SDS011;2663;53.588;10.010;2023-04-09T05:26:07;100.77;;;34.17;;
5279;SDS011;2663;53.588;10.010;2023-04-09T05:28:34;96.70;;;35.20;;
5279;SDS011;2663;53.588;10.010;2023-04-09T05:31:01;95.17;;;35.70;;
5279;SDS011;2663;53.588;10.010;2023-04-09T05:33:28;93.40;;;35.37;;
5279;SDS011;2663;53.588;10.010;2023-04-09T05:35:55;101.83;;;37.70;;
5279;SDS011;2663;53.588;10.010;2023-04-09T05:38:21;85.83;;;34.60;;
5279;SDS011;2663;53.588;10.010;2023-04-09T05:40:48;90.13;;;34.77;;
5279;SDS011;2663;53.588;10.010;2023-04-09T05:43:14;96.23;;;34.43;;
5279;SDS011;2663;53.588;10.010;2023-04-09T05:45:41;86.97;;;36.20;;
5279;SDS011;2663;53.588;10.010;2023-04-09T05:48:08;109.67;;;39.27;;
5279;SDS011;2663;53.588;10.010;2023-04-09T05:50:35;100.63;;;35.40;;
5279;SDS011;2663;53.588;10.010;2023-04-09T05:53:19;107.93;;;37.57;;
5279;SDS011;2663;53.588;10.010;2023-04-09T05:55:46;105.70;;;39.57;;
5279;SDS011;2663;53.588;10.010;2023-04-09T05:58:14;105.63;;;37.20;;
5279;SDS011;2663;53.588;10.010;2023-04-09T06:00:41;117.20;;;37.97;;
5279;SDS011;2663;53.588;10.010;2023-04-09T06:03:08;108.17;;;39.70;;
5279;SDS011;2663;53.588;10.010;2023-04-09T06:05:35;105.83;;;37.57;;
5279;SDS011;2663;53.588;10.010;2023-04-09T06:08:01;114.77;;;39.50;;
5279;SDS011;2663;53.588;10.010;2023-04-09T06:10:30;100.50;;;37.40;;
5279;SDS011;2663;53.588;10.010;2023-04-09T06:12:58;107.73;;;39.80;;
5279;SDS011;2663;53.588;10.010;2023-04-09T06:15:24;100.80;;;37.80;;
5279;SDS011;2663;53.588;10.010;2023-04-09T06:17:51;102.13;;;36.77;;
5279;SDS011;2663;53.588;10.010;2023-04-09T06:20:18;110.67;;;38.33;;
5279;SDS011;2663;53.588;10.010;2023-04-09T06:22:44;109.97;;;38.60;;
5279;SDS011;2663;53.588;10.010;2023-04-09T06:25:11;103.33;;;35.77;;
5279;SDS011;2663;53.588;10.010;2023-04-09T06:27:38;96.53;;;38.70;;
5279;SDS011;2663;53.588;10.010;2023-04-09T06:30:05;103.77;;;37.00;;
5279;SDS011;2663;53.588;10.010;2023-04-09T06:32:32;107.80;;;36.40;;
5279;SDS011;2663;53.588;10.010;2023-04-09T06:35:16;97.73;;;36.73;;
5279;SDS011;2663;53.588;10.010;2023-04-09T06:37:43;105.53;;;38.30;;
5279;SDS011;2663;53.588;10.010;2023-04-09T06:40:09;101.80;;;37.57;;
5279;SDS011;2663;53.588;10.010;2023-04-09T06:42:36;111.93;;;37.80;;
5279;SDS011;2663;53.588;10.010;2023-04-09T06:45:03;92.37;;;36.60;;
5279;SDS011;2663;53.588;10.010;2023-04-09T06:47:34;104.27;;;37.30;;
5279;SDS011;2663;53.588;10.010;2023-04-09T06:50:01;103.13;;;36.20;;
5279;SDS011;2663;53.588;10.010;2023-04-09T06:52:28;106.20;;;39.10;;
5279;SDS011;2663;53.588;10.010;2023-04-09T06:54:55;112.33;;;39.00;;
5279;SDS011;2663;53.588;10.010;2023-04-09T06:57:22;130.53;;;42.10;;
5279;SDS011;2663;53.588;10.010;2023-04-09T06:59:48;113.10;;;39.13;;
5279;SDS011;2663;53.588;10.010;2023-04-09T07:02:15;113.20;;;39.77;;
5279;SDS011;2663;53.588;10.010;2023-04-09T07:04:42;108.20;;;39.67;;
5279;SDS011;2663;53.588;10.010;2023-04-09T07:07:09;121.90;;;41.33;;
5279;SDS011;2663;53.588;10.010;2023-04-09T07:09:36;114.70;;;39.40;;
5279;SDS011;2663;53.588;10.010;2023-04-09T07:12:02;114.17;;;40.10;;
5279;SDS011;2663;53.588;10.010;2023-04-09T07:14:29;109.10;;;36.97;;
5279;SDS011;2663;53.588;10.010;2023-04-09T07:16:56;104.00;;;36.50;;
5279;SDS011;2663;53.588;10.010;2023-04-09T07:19:22;112.10;;;35.57;;
5279;SDS011;2663;53.588;10.010;2023-04-09T07:21:49;88.70;;;33.20;;
5279;SDS011;2663;53.588;10.010;2023-04-09T07:24:16;104.90;;;37.63;;
5279;SDS011;2663;53.588;10.010;2023-04-09T07:26:43;112.13;;;35.90;;
5279;SDS011;2663;53.588;10.010;2023-04-09T07:29:09;111.80;;;38.80;;
5279;SDS011;2663;53.588;10.010;2023-04-09T07:31:36;110.50;;;39.17;;
5279;SDS011;2663;53.588;10.010;2023-04-09T07:34:03;104.30;;;39.00;;
5279;SDS011;2663;53.588;10.010;2023-04-09T07:36:30;112.73;;;38.90;;
5279;SDS011;2663;53.588;10.010;2023-04-09T07:38:57;98.43;;;35.17;;
5279;SDS011;2663;53.588;10.010;2023-04-09T07:41:23;113.27;;;39.60;;
5279;SDS011;2663;53.588;10.010;2023-04-09T07:43:50;114.43;;;35.67;;
5279;SDS011;2663;53.588;10.010;2023-04-09T07:46:17;102.80;;;35.57;;
5279;SDS011;2663;53.588;10.010;2023-04-09T07:48:45;97.20;;;36.37;;
5279;SDS011;2663;53.588;10.010;2023-04-09T07:51:13;114.77;;;38.30;;
5279;SDS011;2663;53.588;10.010;2023-04-09T07:53:40;104.10;;;35.77;;
5279;SDS011;2663;53.588;10.010;2023-04-09T07:56:07;102.07;;;36.17;;
5279;SDS011;2663;53.588;10.010;2023-04-09T07:58:34;93.90;;;34.33;;
5279;SDS011;2663;53.588;10.010;2023-04-09T08:01:03;99.60;;;38.03;;
5279;SDS011;2663;53.588;10.010;2023-04-09T08:03:29;109.03;;;35.80;;
5279;SDS011;2663;53.588;10.010;2023-04-09T08:05:57;86.37;;;32.60;;
5279;SDS011;2663;53.588;10.010;2023-04-09T08:08:23;85.97;;;32.63;;
5279;SDS011;2663;53.588;10.010;2023-04-09T08:10:50;97.57;;;32.50;;
5279;SDS011;2663;53.588;10.010;2023-04-09T08:13:17;92.27;;;34.07;;
5279;SDS011;2663;53.588;10.010;2023-04-09T08:15:43;74.47;;;30.50;;
5279;SDS011;2663;53.588;10.010;2023-04-09T08:18:10;79.13;;;32.63;;
5279;SDS011;2663;53.588;10.010;2023-04-09T08:20:37;81.93;;;30.60;;
5279;SDS011;2663;53.588;10.010;2023-04-09T08:23:10;72.97;;;29.77;;
5279;SDS011;2663;53.588;10.010;2023-04-09T08:25:37;75.77;;;28.90;;
5279;SDS011;2663;53.588;10.010;2023-04-09T08:28:03;65.37;;;26.67;;
5279;SDS011;2663;53.588;10.010;2023-04-09T08:30:30;74.27;;;27.87;;
5279;SDS011;2663;53.588;10.010;2023-04-09T08:33:00;73.23;;;28.20;;
5279;SDS011;2663;53.588;10.010;2023-04-09T08:35:28;83.07;;;25.87;;
5279;SDS011;2663;53.588;10.010;2023-04-09T08:37:56;79.30;;;33.03;;
5279;SDS011;2663;53.588;10.010;2023-04-09T08:40:23;62.13;;;25.90;;
5279;SDS011;2663;53.588;10.010;2023-04-09T08:42:54;66.57;;;28.30;;
5279;SDS011;2663;53.588;10.010;2023-04-09T08:45:22;65.03;;;28.40;;
5279;SDS011;2663;53.588;10.010;2023-04-09T08:47:49;49.17;;;23.90;;
5279;SDS011;2663;53.588;10.010;2023-04-09T08:50:17;60.73;;;24.23;;
5279;SDS011;2663;53.588;10.010;2023-04-09T08:52:45;54.13;;;24.03;;
5279;SDS011;2663;53.588;10.010;2023-04-09T08:55:13;49.77;;;22.30;;
5279;SDS011;2663;53.588;10.010;2023-04-09T08:57:39;48.47;;;22.77;;
5279;SDS011;2663;53.588;10.010;2023-04-09T09:00:06;48.80;;;22.93;;
5279;SDS011;2663;53.588;10.010;2023-04-09T09:02:34;56.50;;;23.00;;
5279;SDS011;2663;53.588;10.010;2023-04-09T09:05:01;45.47;;;20.10;;
5279;SDS011;2663;53.588;10.010;2023-04-09T09:07:28;48.87;;;20.10;;
5279;SDS011;2663;53.588;10.010;2023-04-09T09:09:59;41.97;;;19.43;;
5279;SDS011;2663;53.588;10.010;2023-04-09T09:15:01;45.63;;;19.87;;
5279;SDS011;2663;53.588;10.010;2023-04-09T09:17:28;45.63;;;19.83;;
5279;SDS011;2663;53.588;10.010;2023-04-09T09:19:55;39.17;;;19.60;;
5279;SDS011;2663;53.588;10.010;2023-04-09T09:22:21;44.00;;;20.23;;
5279;SDS011;2663;53.588;10.010;2023-04-09T09:24:50;44.43;;;18.93;;
5279;SDS011;2663;53.588;10.010;2023-04-09T09:27:31;45.57;;;19.37;;
5279;SDS011;2663;53.588;10.010;2023-04-09T09:30:04;47.50;;;20.60;;
5279;SDS011;2663;53.588;10.010;2023-04-09T09:32:32;43.97;;;19.70;;
5279;SDS011;2663;53.588;10.010;2023-04-09T09:35:03;37.73;;;19.10;;
5279;SDS011;2663;53.588;10.010;2023-04-09T09:37:31;36.17;;;19.33;;
5279;SDS011;2663;53.588;10.010;2023-04-09T09:39:59;34.13;;;17.43;;
5279;SDS011;2663;53.588;10.010;2023-04-09T09:42:26;39.40;;;19.47;;
5279;SDS011;2663;53.588;10.010;2023-04-09T09:44:53;37.63;;;18.73;;
5279;SDS011;2663;53.588;10.010;2023-04-09T09:47:20;37.17;;;18.07;;
5279;SDS011;2663;53.588;10.010;2023-04-09T09:49:48;31.43;;;17.83;;
5279;SDS011;2663;53.588;10.010;2023-04-09T09:52:17;36.67;;;17.03;;
5279;SDS011;2663;53.588;10.010;2023-04-09T09:54:50;32.50;;;17.07;;
5279;SDS011;2663;53.588;10.010;2023-04-09T09:57:19;31.13;;;18.30;;
5279;SDS011;2663;53.588;10.010;2023-04-09T09:59:54;39.73;;;19.00;;
5279;SDS011;2663;53.588;10.010;2023-04-09T10:02:26;35.37;;;18.33;;
5279;SDS011;2663;53.588;10.010;2023-04-09T10:04:56;40.00;;;20.37;;
5279;SDS011;2663;53.588;10.010;2023-04-09T10:07:26;32.53;;;17.60;;
5279;SDS011;2663;53.588;10.010;2023-04-09T10:09:53;36.20;;;19.47;;
5279;SDS011;2663;53.588;10.010;2023-04-09T10:12:23;36.90;;;18.40;;
5279;SDS011;2663;53.588;10.010;2023-04-09T10:14:51;29.93;;;16.90;;
5279;SDS011;2663;53.588;10.010;2023-04-09T10:17:21;37.10;;;18.80;;
5279;SDS011;2663;53.588;10.010;2023-04-09T10:19:55;32.37;;;17.17;;
5279;SDS011;2663;53.588;10.010;2023-04-09T10:22:30;35.57;;;19.40;;
5279;SDS011;2663;53.588;10.010;2023-04-09T10:24:59;36.03;;;18.30;;
5279;SDS011;2663;53.588;10.010;2023-04-09T10:27:28;34.97;;;18.13;;
5279;SDS011;2663;53.588;10.010;2023-04-09T10:29:54;36.23;;;18.90;;
5279;SDS011;2663;53.588;10.010;2023-04-09T10:32:21;38.10;;;18.40;;
5279;SDS011;2663;53.588;10.010;2023-04-09T10:34:56;39.43;;;19.30;;
5279;SDS011;2663;53.588;10.010;2023-04-09T10:37:25;36.87;;;20.27;;
5279;SDS011;2663;53.588;10.010;2023-04-09T10:39:53;41.30;;;20.77;;
5279;SDS011;2663;53.588;10.010;2023-04-09T10:42:22;39.97;;;19.93;;
5279;SDS011;2663;53.588;10.010;2023-04-09T10:45:10;36.77;;;20.10;;
5279;SDS011;2663;53.588;10.010;2023-04-09T10:47:39;37.27;;;20.00;;
5279;SDS011;2663;53.588;10.010;2023-04-09T10:50:21;37.03;;;19.47;;
5279;SDS011;2663;53.588;10.010;2023-04-09T10:52:52;37.70;;;18.60;;
5279;SDS011;2663;53.588;10.010;2023-04-09T10:55:31;34.70;;;18.70;;
5279;SDS011;2663;53.588;10.010;2023-04-09T10:58:09;41.00;;;20.80;;
5279;SDS011;2663;53.588;10.010;2023-04-09T11:00:39;40.63;;;19.30;;
5279;SDS011;2663;53.588;10.010;2023-04-09T11:05:35;40.13;;;18.43;;
5279;SDS011;2663;53.588;10.010;2023-04-09T11:08:12;36.63;;;19.30;;
5279;SDS011;2663;53.588;10.010;2023-04-09T11:10:43;32.20;;;17.87;;
5279;SDS011;2663;53.588;10.010;2023-04-09T11:13:12;32.40;;;18.30;;
5279;SDS011;2663;53.588;10.010;2023-04-09T11:15:40;35.80;;;19.37;;
5279;SDS011;2663;53.588;10.010;2023-04-09T11:18:07;31.87;;;18.57;;
5279;SDS011;2663;53.588;10.010;2023-04-09T11:20:37;31.93;;;18.30;;
5279;SDS011;2663;53.588;10.010;2023-04-09T11:23:04;39.60;;;19.87;;
5279;SDS011;2663;53.588;10.010;2023-04-09T11:25:31;32.63;;;18.83;;
5279;SDS011;2663;53.588;10.010;2023-04-09T11:28:00;39.47;;;19.10;;
5279;SDS011;2663;53.588;10.010;2023-04-09T11:30:28;32.63;;;18.00;;
5279;SDS011;2663;53.588;10.010;2023-04-09T11:32:56;36.20;;;18.60;;
5279;SDS011;2663;53.588;10.010;2023-04-09T11:35:23;33.73;;;18.27;;
5279;SDS011;2663;53.588;10.010;2023-04-09T11:37:50;34.90;;;18.73;;
5279;SDS011;2663;53.588;10.010;2023-04-09T11:42:46;36.27;;;18.20;;
5279;SDS011;2663;53.588;10.010;2023-04-09T11:45:14;31.93;;;17.70;;
5279;SDS011;2663;53.588;10.010;2023-04-09T11:47:42;35.47;;;17.83;;
5279;SDS011;2663;53.588;10.010;2023-04-09T11:50:10;32.37;;;17.97;;
5279;SDS011;2663;53.588;10.010;2023-04-09T11:52:38;41.23;;;18.27;;
5279;SDS011;2663;53.588;10.010;2023-04-09T11:55:09;31.80;;;16.70;;
5279;SDS011;2663;53.588;10.010;2023-04-09T12:00:14;42.37;;;22.77;;
5279;SDS011;2663;53.588;10.010;2023-04-09T12:02:44;37.27;;;20.47;;
5279;SDS011;2663;53.588;10.010;2023-04-09T12:05:20;32.13;;;18.30;;
5279;SDS011;2663;53.588;10.010;2023-04-09T12:07:48;35.90;;;17.93;;
5279;SDS011;2663;53.588;10.010;2023-04-09T12:10:24;31.73;;;19.10;;
5279;SDS011;2663;53.588;10.010;2023-04-09T12:13:02;48.63;;;21.73;;
5279;SDS011;2663;53.588;10.010;2023-04-09T12:15:35;37.03;;;20.97;;
5279;SDS011;2663;53.588;10.010;2023-04-09T12:18:06;39.90;;;21.00;;
5279;SDS011;2663;53.588;10.010;2023-04-09T12:20:38;38.23;;;20.27;;
5279;SDS011;2663;53.588;10.010;2023-04-09T12:23:09;37.83;;;19.43;;
5279;SDS011;2663;53.588;10.010;2023-04-09T12:25:37;34.03;;;18.77;;
5279;SDS011;2663;53.588;10.010;2023-04-09T12:28:06;38.47;;;19.63;;
5279;SDS011;2663;53.588;10.010;2023-04-09T12:30:34;34.10;;;20.53;;
5279;SDS011;2663;53.588;10.010;2023-04-09T12:33:01;43.43;;;22.27;;
5279;SDS011;2663;53.588;10.010;2023-04-09T12:35:29;39.23;;;20.27;;
5279;SDS011;2663;53.588;10.010;2023-04-09T12:37:56;35.50;;;20.30;;
5279;SDS011;2663;53.588;10.010;2023-04-09T12:40:24;46.53;;;20.40;;
5279;SDS011;2663;53.588;10.010;2023-04-09T12:42:51;36.07;;;19.00;;
5279;SDS011;2663;53.588;10.010;2023-04-09T12:45:18;35.57;;;19.57;;
5279;SDS011;2663;53.588;10.010;2023-04-09T12:47:46;39.10;;;18.77;;
5279;SDS011;2663;53.588;10.010;2023-04-09T12:50:13;29.60;;;17.17;;
5279;SDS011;2663;53.588;10.010;2023-04-09T12:52:44;28.47;;;16.70;;
5279;SDS011;2663;53.588;10.010;2023-04-09T12:55:12;27.10;;;15.20;;
5279;SDS011;2663;53.588;10.010;2023-04-09T12:57:41;36.87;;;18.20;;
5279;SDS011;2663;53.588;10.010;2023-04-09T13:00:09;34.07;;;16.90;;
5279;SDS011;2663;53.588;10.010;2023-04-09T13:02:37;29.10;;;15.80;;
5279;SDS011;2663;53.588;10.010;2023-04-09T13:05:04;27.10;;;15.10;;
5279;SDS011;2663;53.588;10.010;2023-04-09T13:07:31;31.27;;;17.73;;
5279;SDS011;2663;53.588;10.010;2023-04-09T13:09:57;26.07;;;16.50;;
5279;SDS011;2663;53.588;10.010;2023-04-09T13:12:24;31.73;;;16.40;;
5279;SDS011;2663;53.588;10.010;2023-04-09T13:14:52;27.40;;;15.10;;
5279;SDS011;2663;53.588;10.010;2023-04-09T13:17:20;24.57;;;15.27;;
5279;SDS011;2663;53.588;10.010;2023-04-09T13:19:47;34.83;;;17.10;;
5279;SDS011;2663;53.588;10.010;2023-04-09T13:22:14;30.37;;;17.10;;
5279;SDS011;2663;53.588;10.010;2023-04-09T13:24:41;29.77;;;15.27;;
5279;SDS011;2663;53.588;10.010;2023-04-09T13:27:09;31.80;;;15.23;;
5279;SDS011;2663;53.588;10.010;2023-04-09T13:29:36;31.47;;;15.93;;
5279;SDS011;2663;53.588;10.010;2023-04-09T13:32:03;27.97;;;14.67;;
5279;SDS011;2663;53.588;10.010;2023-04-09T13:34:33;32.77;;;16.10;;
5279;SDS011;2663;53.588;10.010;2023-04-09T13:37:01;31.00;;;16.03;;
5279;SDS011;2663;53.588;10.010;2023-04-09T13:39:28;29.33;;;15.60;;
5279;SDS011;2663;53.588;10.010;2023-04-09T13:41:55;33.40;;;15.90;;
5279;SDS011;2663;53.588;10.010;2023-04-09T13:44:23;26.27;;;16.47;;
5279;SDS011;2663;53.588;10.010;2023-04-09T13:46:50;27.63;;;15.30;;
5279;SDS011;2663;53.588;10.010;2023-04-09T13:49:16;30.50;;;16.30;;
5279;SDS011;2663;53.588;10.010;2023-04-09T13:51:43;36.00;;;17.37;;
5279;SDS011;2663;53.588;10.010;2023-04-09T13:54:10;27.50;;;14.73;;
5279;SDS011;2663;53.588;10.010;2023-04-09T13:56:37;28.03;;;15.53;;
5279;SDS011;2663;53.588;10.010;2023-04-09T13:59:04;29.23;;;16.53;;
5279;SDS011;2663;53.588;10.010;2023-04-09T14:01:31;30.77;;;17.10;;
5279;SDS011;2663;53.588;10.010;2023-04-09T14:03:59;31.43;;;16.83;;
5279;SDS011;2663;53.588;10.010;2023-04-09T14:06:26;30.30;;;16.60;;
5279;SDS011;2663;53.588;10.010;2023-04-09T14:08:53;29.03;;;15.70;;
5279;SDS011;2663;53.588;10.010;2023-04-09T14:11:20;39.07;;;16.43;;
5279;SDS011;2663;53.588;10.010;2023-04-09T14:13:47;29.77;;;16.20;;
5279;SDS011;2663;53.588;10.010;2023-04-09T14:16:13;29.13;;;15.80;;
5279;SDS011;2663;53.588;10.010;2023-04-09T14:18:40;37.77;;;17.53;;
5279;SDS011;2663;53.588;10.010;2023-04-09T14:21:07;27.53;;;15.67;;
5279;SDS011;2663;53.588;10.010;2023-04-09T14:23:35;32.53;;;17.93;;
5279;SDS011;2663;53.588;10.010;2023-04-09T14:26:03;32.93;;;16.97;;
5279;SDS011;2663;53.588;10.010;2023-04-09T14:28:30;33.33;;;15.60;;
5279;SDS011;2663;53.588;10.010;2023-04-09T14:30:57;29.87;;;15.73;;
5279;SDS011;2663;53.588;10.010;2023-04-09T14:33:25;31.30;;;16.33;;
5279;SDS011;2663;53.588;10.010;2023-04-09T14:35:52;29.90;;;15.90;;
5279;SDS011;2663;53.588;10.010;2023-04-09T14:38:18;29.27;;;16.20;;
5279;SDS011;2663;53.588;10.010;2023-04-09T14:40:45;27.87;;;15.17;;
5279;SDS011;2663;53.588;10.010;2023-04-09T14:43:12;28.83;;;16.40;;
5279;SDS011;2663;53.588;10.010;2023-04-09T14:45:38;32.00;;;17.40;;
5279;SDS011;2663;53.588;10.010;2023-04-09T14:48:05;23.40;;;14.30;;
5279;SDS011;2663;53.588;10.010;2023-04-09T14:50:32;28.50;;;16.10;;
5279;SDS011;2663;53.588;10.010;2023-04-09T14:52:59;32.37;;;17.07;;
5279;SDS011;2663;53.588;10.010;2023-04-09T14:55:26;30.33;;;16.87;;
5279;SDS011;2663;53.588;10.010;2023-04-09T14:57:53;28.90;;;15.57;;
5279;SDS011;2663;53.588;10.010;2023-04-09T15:00:20;33.13;;;15.30;;
5279;SDS011;2663;53.588;10.010;2023-04-09T15:02:47;32.97;;;16.80;;